Turkey Creek, Kentucky
Current Conditions -  °F | °C
As of 3:55 AM on Wednesday 22 Oct 2014 (Local Time) from KPBX Reporting Station
Scattered Clouds Scattered Clouds  
Wind Chill: 42°   Ceiling: Unl
Heat Index: 42°   Visibility: 10mi
Dew Point: 39°   Wind: 3mph
Humidity: 87%   Direction: 340°NNW
Pressure: 30.11"   Gusts: NA
Location:  37.632°N, 82.2603°W
Report Text: KPBX 220755Z AUTO 34003KT 10SM SCT041 06/04 A3011 RMK AO2 T00570037
Loading
Personal Weather Stations






























Interactive Weather Map
Tropical Storm Tracking
New forecast layout! Learn more

10-Day Weather Forecast

Advertisements
Track Severe Weather on mobile